sensor_id;sensor_type;location;lat;lon;timestamp;P1;durP1;ratioP1;P2;durP2;ratioP2
5060;SDS011;2549;52.128;21.068;2022-08-04T00:02:42;7.23;;;5.63;;
5060;SDS011;2549;52.128;21.068;2022-08-04T00:10:47;8.20;;;5.73;;
5060;SDS011;2549;52.128;21.068;2022-08-04T00:13:22;8.10;;;5.87;;
5060;SDS011;2549;52.128;21.068;2022-08-04T00:15:51;7.27;;;5.40;;
5060;SDS011;2549;52.128;21.068;2022-08-04T00:18:25;11.83;;;6.07;;
5060;SDS011;2549;52.128;21.068;2022-08-04T00:20:55;7.53;;;6.73;;
5060;SDS011;2549;52.128;21.068;2022-08-04T00:23:26;10.33;;;5.60;;
5060;SDS011;2549;52.128;21.068;2022-08-04T00:26:18;6.93;;;5.60;;
5060;SDS011;2549;52.128;21.068;2022-08-04T00:28:46;9.13;;;6.47;;
5060;SDS011;2549;52.128;21.068;2022-08-04T00:31:14;6.73;;;5.20;;
5060;SDS011;2549;52.128;21.068;2022-08-04T00:33:44;5.93;;;5.43;;
5060;SDS011;2549;52.128;21.068;2022-08-04T00:36:12;6.20;;;5.60;;
5060;SDS011;2549;52.128;21.068;2022-08-04T00:38:41;5.53;;;5.03;;
5060;SDS011;2549;52.128;21.068;2022-08-04T00:41:24;9.93;;;5.37;;
5060;SDS011;2549;52.128;21.068;2022-08-04T00:44:27;5.63;;;5.13;;
5060;SDS011;2549;52.128;21.068;2022-08-04T01:00:43;7.40;;;6.70;;
5060;SDS011;2549;52.128;21.068;2022-08-04T01:03:23;8.23;;;5.30;;
5060;SDS011;2549;52.128;21.068;2022-08-04T01:14:43;5.27;;;4.77;;
5060;SDS011;2549;52.128;21.068;2022-08-04T01:20:05;7.63;;;5.77;;
5060;SDS011;2549;52.128;21.068;2022-08-04T01:30:49;6.70;;;6.00;;
5060;SDS011;2549;52.128;21.068;2022-08-04T01:33:21;6.40;;;5.90;;
5060;SDS011;2549;52.128;21.068;2022-08-04T01:35:54;7.00;;;6.10;;
5060;SDS011;2549;52.128;21.068;2022-08-04T01:38:31;7.43;;;5.10;;
5060;SDS011;2549;52.128;21.068;2022-08-04T01:41:01;6.27;;;5.67;;
5060;SDS011;2549;52.128;21.068;2022-08-04T01:43:33;9.13;;;6.43;;
5060;SDS011;2549;52.128;21.068;2022-08-04T01:46:03;6.73;;;5.13;;
5060;SDS011;2549;52.128;21.068;2022-08-04T01:48:32;5.60;;;5.00;;
5060;SDS011;2549;52.128;21.068;2022-08-04T01:51:04;7.67;;;5.47;;
5060;SDS011;2549;52.128;21.068;2022-08-04T01:53:40;6.57;;;5.90;;
5060;SDS011;2549;52.128;21.068;2022-08-04T01:56:09;9.27;;;6.13;;
5060;SDS011;2549;52.128;21.068;2022-08-04T01:58:37;8.63;;;5.47;;
5060;SDS011;2549;52.128;21.068;2022-08-04T02:01:06;5.20;;;4.80;;
5060;SDS011;2549;52.128;21.068;2022-08-04T02:03:37;5.20;;;4.80;;
5060;SDS011;2549;52.128;21.068;2022-08-04T02:06:30;8.57;;;5.87;;
5060;SDS011;2549;52.128;21.068;2022-08-04T02:09:22;6.90;;;4.90;;
5060;SDS011;2549;52.128;21.068;2022-08-04T02:15:09;7.50;;;5.97;;
5060;SDS011;2549;52.128;21.068;2022-08-04T02:17:53;11.10;;;5.70;;
5060;SDS011;2549;52.128;21.068;2022-08-04T02:20:34;8.63;;;6.00;;
5060;SDS011;2549;52.128;21.068;2022-08-04T02:23:06;6.47;;;5.70;;
5060;SDS011;2549;52.128;21.068;2022-08-04T02:25:48;6.60;;;6.00;;
5060;SDS011;2549;52.128;21.068;2022-08-04T02:28:33;7.10;;;5.77;;
5060;SDS011;2549;52.128;21.068;2022-08-04T02:36:39;6.43;;;5.83;;
5060;SDS011;2549;52.128;21.068;2022-08-04T02:39:08;6.97;;;6.00;;
5060;SDS011;2549;52.128;21.068;2022-08-04T02:41:37;8.03;;;5.50;;
5060;SDS011;2549;52.128;21.068;2022-08-04T02:44:08;5.17;;;4.67;;
5060;SDS011;2549;52.128;21.068;2022-08-04T02:46:36;5.90;;;5.30;;
5060;SDS011;2549;52.128;21.068;2022-08-04T02:49:08;7.37;;;5.67;;
5060;SDS011;2549;52.128;21.068;2022-08-04T02:51:37;6.90;;;5.20;;
5060;SDS011;2549;52.128;21.068;2022-08-04T02:54:06;6.60;;;5.40;;
5060;SDS011;2549;52.128;21.068;2022-08-04T02:56:34;6.53;;;5.40;;
5060;SDS011;2549;52.128;21.068;2022-08-04T02:59:08;7.13;;;6.47;;
5060;SDS011;2549;52.128;21.068;2022-08-04T03:01:37;5.90;;;5.30;;
5060;SDS011;2549;52.128;21.068;2022-08-04T04:09:15;5.83;;;5.13;;
5060;SDS011;2549;52.128;21.068;2022-08-04T04:15:23;7.83;;;5.60;;
5060;SDS011;2549;52.128;21.068;2022-08-04T04:18:19;6.97;;;5.93;;
5060;SDS011;2549;52.128;21.068;2022-08-04T04:29:06;6.30;;;5.80;;
5060;SDS011;2549;52.128;21.068;2022-08-04T04:45:41;10.07;;;6.00;;
5060;SDS011;2549;52.128;21.068;2022-08-04T04:51:21;7.30;;;6.13;;
5060;SDS011;2549;52.128;21.068;2022-08-04T04:56:44;10.27;;;5.87;;
5060;SDS011;2549;52.128;21.068;2022-08-04T04:59:16;7.70;;;6.30;;
5060;SDS011;2549;52.128;21.068;2022-08-04T05:15:39;12.40;;;5.63;;
5060;SDS011;2549;52.128;21.068;2022-08-04T05:18:09;5.73;;;5.23;;
5060;SDS011;2549;52.128;21.068;2022-08-04T05:20:43;6.60;;;5.90;;
5060;SDS011;2549;52.128;21.068;2022-08-04T05:23:24;5.60;;;5.10;;
5060;SDS011;2549;52.128;21.068;2022-08-04T05:25:58;5.93;;;5.33;;
5060;SDS011;2549;52.128;21.068;2022-08-04T05:28:27;5.63;;;5.13;;
5060;SDS011;2549;52.128;21.068;2022-08-04T05:31:15;8.90;;;5.30;;
5060;SDS011;2549;52.128;21.068;2022-08-04T05:33:56;15.20;;;5.97;;
5060;SDS011;2549;52.128;21.068;2022-08-04T05:36:32;9.00;;;5.37;;
5060;SDS011;2549;52.128;21.068;2022-08-04T05:39:09;5.30;;;4.80;;
5060;SDS011;2549;52.128;21.068;2022-08-04T05:41:39;7.50;;;5.90;;
5060;SDS011;2549;52.128;21.068;2022-08-04T05:44:16;5.23;;;4.83;;
5060;SDS011;2549;52.128;21.068;2022-08-04T05:46:50;5.20;;;4.70;;
5060;SDS011;2549;52.128;21.068;2022-08-04T05:49:27;10.43;;;5.70;;
5060;SDS011;2549;52.128;21.068;2022-08-04T05:51:57;4.73;;;4.37;;
5060;SDS011;2549;52.128;21.068;2022-08-04T05:54:26;4.97;;;4.53;;
5060;SDS011;2549;52.128;21.068;2022-08-04T05:56:55;11.63;;;4.80;;
5060;SDS011;2549;52.128;21.068;2022-08-04T05:59:23;3.50;;;3.20;;
5060;SDS011;2549;52.128;21.068;2022-08-04T06:01:52;7.97;;;4.70;;
5060;SDS011;2549;52.128;21.068;2022-08-04T06:04:39;5.77;;;4.20;;
5060;SDS011;2549;52.128;21.068;2022-08-04T06:07:08;4.97;;;4.07;;
5060;SDS011;2549;52.128;21.068;2022-08-04T06:09:38;10.73;;;4.43;;
5060;SDS011;2549;52.128;21.068;2022-08-04T06:12:07;4.93;;;4.00;;
5060;SDS011;2549;52.128;21.068;2022-08-04T06:14:44;8.83;;;4.90;;
5060;SDS011;2549;52.128;21.068;2022-08-04T06:17:19;7.30;;;4.23;;
5060;SDS011;2549;52.128;21.068;2022-08-04T06:20:09;4.87;;;4.30;;
5060;SDS011;2549;52.128;21.068;2022-08-04T06:22:45;6.53;;;4.37;;
5060;SDS011;2549;52.128;21.068;2022-08-04T06:25:17;9.70;;;4.30;;
5060;SDS011;2549;52.128;21.068;2022-08-04T06:27:47;6.10;;;3.70;;
5060;SDS011;2549;52.128;21.068;2022-08-04T06:30:15;5.03;;;3.63;;
5060;SDS011;2549;52.128;21.068;2022-08-04T06:32:47;4.10;;;3.33;;
5060;SDS011;2549;52.128;21.068;2022-08-04T06:35:29;10.73;;;3.83;;
5060;SDS011;2549;52.128;21.068;2022-08-04T06:37:57;3.10;;;2.80;;
5060;SDS011;2549;52.128;21.068;2022-08-04T06:40:26;9.87;;;4.20;;
5060;SDS011;2549;52.128;21.068;2022-08-04T06:42:58;10.23;;;3.60;;
5060;SDS011;2549;52.128;21.068;2022-08-04T06:45:31;3.63;;;3.23;;
5060;SDS011;2549;52.128;21.068;2022-08-04T06:48:00;4.20;;;3.00;;
5060;SDS011;2549;52.128;21.068;2022-08-04T06:50:30;4.03;;;3.33;;
5060;SDS011;2549;52.128;21.068;2022-08-04T06:53:19;6.17;;;2.70;;
5060;SDS011;2549;52.128;21.068;2022-08-04T06:55:46;2.83;;;2.63;;
5060;SDS011;2549;52.128;21.068;2022-08-04T06:58:14;2.90;;;2.47;;
5060;SDS011;2549;52.128;21.068;2022-08-04T07:00:42;4.90;;;3.30;;
5060;SDS011;2549;52.128;21.068;2022-08-04T07:03:11;2.83;;;2.50;;
5060;SDS011;2549;52.128;21.068;2022-08-04T07:05:39;3.10;;;2.80;;
5060;SDS011;2549;52.128;21.068;2022-08-04T07:08:08;4.73;;;2.57;;
5060;SDS011;2549;52.128;21.068;2022-08-04T07:10:36;6.40;;;2.97;;
5060;SDS011;2549;52.128;21.068;2022-08-04T07:13:04;4.03;;;2.40;;
5060;SDS011;2549;52.128;21.068;2022-08-04T07:15:32;6.10;;;3.17;;
5060;SDS011;2549;52.128;21.068;2022-08-04T07:18:01;4.83;;;2.87;;
5060;SDS011;2549;52.128;21.068;2022-08-04T07:20:30;4.57;;;3.07;;
5060;SDS011;2549;52.128;21.068;2022-08-04T07:23:04;4.23;;;2.73;;
5060;SDS011;2549;52.128;21.068;2022-08-04T07:25:35;2.57;;;2.47;;
5060;SDS011;2549;52.128;21.068;2022-08-04T07:28:26;2.43;;;2.30;;
5060;SDS011;2549;52.128;21.068;2022-08-04T07:30:55;3.37;;;2.90;;
5060;SDS011;2549;52.128;21.068;2022-08-04T07:33:23;5.90;;;4.03;;
5060;SDS011;2549;52.128;21.068;2022-08-04T07:35:54;2.50;;;2.40;;
5060;SDS011;2549;52.128;21.068;2022-08-04T07:38:40;7.23;;;3.13;;
5060;SDS011;2549;52.128;21.068;2022-08-04T07:41:25;3.10;;;2.70;;
5060;SDS011;2549;52.128;21.068;2022-08-04T07:44:02;3.63;;;2.33;;
5060;SDS011;2549;52.128;21.068;2022-08-04T07:46:29;2.60;;;2.50;;
5060;SDS011;2549;52.128;21.068;2022-08-04T07:48:58;2.30;;;2.20;;
5060;SDS011;2549;52.128;21.068;2022-08-04T07:51:26;9.23;;;2.70;;
5060;SDS011;2549;52.128;21.068;2022-08-04T07:53:54;4.33;;;2.63;;
5060;SDS011;2549;52.128;21.068;2022-08-04T07:56:22;2.37;;;2.13;;
5060;SDS011;2549;52.128;21.068;2022-08-04T07:58:54;3.30;;;1.90;;
5060;SDS011;2549;52.128;21.068;2022-08-04T08:01:22;3.33;;;2.57;;
5060;SDS011;2549;52.128;21.068;2022-08-04T08:03:50;3.03;;;2.73;;
5060;SDS011;2549;52.128;21.068;2022-08-04T08:06:19;2.13;;;1.70;;
5060;SDS011;2549;52.128;21.068;2022-08-04T08:08:59;2.43;;;2.20;;
5060;SDS011;2549;52.128;21.068;2022-08-04T08:11:40;2.63;;;2.40;;
5060;SDS011;2549;52.128;21.068;2022-08-04T08:14:28;9.93;;;2.23;;
5060;SDS011;2549;52.128;21.068;2022-08-04T08:16:57;2.63;;;1.80;;
5060;SDS011;2549;52.128;21.068;2022-08-04T08:19:25;2.00;;;1.90;;
5060;SDS011;2549;52.128;21.068;2022-08-04T08:21:52;2.70;;;2.03;;
5060;SDS011;2549;52.128;21.068;2022-08-04T08:24:26;1.70;;;1.60;;
5060;SDS011;2549;52.128;21.068;2022-08-04T08:26:57;2.17;;;2.07;;
5060;SDS011;2549;52.128;21.068;2022-08-04T08:29:25;3.57;;;1.83;;
5060;SDS011;2549;52.128;21.068;2022-08-04T08:31:54;1.77;;;1.67;;
5060;SDS011;2549;52.128;21.068;2022-08-04T08:34:30;1.80;;;1.70;;
5060;SDS011;2549;52.128;21.068;2022-08-04T09:12:17;1.80;;;1.70;;
5060;SDS011;2549;52.128;21.068;2022-08-04T09:15:02;5.93;;;1.63;;
5060;SDS011;2549;52.128;21.068;2022-08-04T09:20:12;1.80;;;1.60;;
5060;SDS011;2549;52.128;21.068;2022-08-04T09:22:59;1.67;;;1.57;;
5060;SDS011;2549;52.128;21.068;2022-08-04T09:26:02;2.93;;;1.97;;
5060;SDS011;2549;52.128;21.068;2022-08-04T09:28:41;1.70;;;1.53;;
5060;SDS011;2549;52.128;21.068;2022-08-04T09:31:21;2.40;;;2.20;;
5060;SDS011;2549;52.128;21.068;2022-08-04T09:34:19;5.33;;;1.93;;
5060;SDS011;2549;52.128;21.068;2022-08-04T09:37:06;2.93;;;1.93;;
5060;SDS011;2549;52.128;21.068;2022-08-04T09:40:04;2.67;;;1.73;;
5060;SDS011;2549;52.128;21.068;2022-08-04T09:45:44;4.50;;;2.20;;
5060;SDS011;2549;52.128;21.068;2022-08-04T10:00:16;5.73;;;1.83;;
5060;SDS011;2549;52.128;21.068;2022-08-04T10:02:37;2.30;;;2.20;;
5060;SDS011;2549;52.128;21.068;2022-08-04T10:05:10;2.20;;;2.10;;
5060;SDS011;2549;52.128;21.068;2022-08-04T10:07:44;2.43;;;1.80;;
5060;SDS011;2549;52.128;21.068;2022-08-04T10:10:55;3.83;;;2.10;;
5060;SDS011;2549;52.128;21.068;2022-08-04T10:16:19;2.57;;;2.47;;
5060;SDS011;2549;52.128;21.068;2022-08-04T10:19:19;6.20;;;2.57;;
5060;SDS011;2549;52.128;21.068;2022-08-04T10:22:00;2.33;;;2.13;;
5060;SDS011;2549;52.128;21.068;2022-08-04T10:25:00;2.20;;;2.07;;
5060;SDS011;2549;52.128;21.068;2022-08-04T10:27:58;4.67;;;2.53;;
5060;SDS011;2549;52.128;21.068;2022-08-04T10:30:28;3.17;;;2.00;;
5060;SDS011;2549;52.128;21.068;2022-08-04T10:36:10;2.53;;;2.33;;
5060;SDS011;2549;52.128;21.068;2022-08-04T10:38:41;4.07;;;2.60;;
5060;SDS011;2549;52.128;21.068;2022-08-04T10:47:10;2.60;;;2.47;;
5060;SDS011;2549;52.128;21.068;2022-08-04T10:49:50;3.93;;;2.30;;
5060;SDS011;2549;52.128;21.068;2022-08-04T11:00:32;3.33;;;2.43;;
5060;SDS011;2549;52.128;21.068;2022-08-04T11:05:44;11.20;;;2.70;;
5060;SDS011;2549;52.128;21.068;2022-08-04T11:13:24;2.33;;;2.13;;
5060;SDS011;2549;52.128;21.068;2022-08-04T11:16:13;3.07;;;2.67;;
5060;SDS011;2549;52.128;21.068;2022-08-04T11:21:38;2.30;;;2.20;;
5060;SDS011;2549;52.128;21.068;2022-08-04T11:24:15;7.37;;;2.87;;
5060;SDS011;2549;52.128;21.068;2022-08-04T11:27:01;7.20;;;2.20;;
5060;SDS011;2549;52.128;21.068;2022-08-04T11:29:45;17.53;;;2.23;;
5060;SDS011;2549;52.128;21.068;2022-08-04T11:32:16;2.90;;;2.40;;
5060;SDS011;2549;52.128;21.068;2022-08-04T11:34:48;4.63;;;2.00;;
5060;SDS011;2549;52.128;21.068;2022-08-04T11:37:22;6.63;;;2.53;;
5060;SDS011;2549;52.128;21.068;2022-08-04T11:40:19;3.57;;;2.47;;
5060;SDS011;2549;52.128;21.068;2022-08-04T11:42:57;3.10;;;2.30;;
5060;SDS011;2549;52.128;21.068;2022-08-04T11:45:30;2.43;;;2.27;;
5060;SDS011;2549;52.128;21.068;2022-08-04T11:48:04;3.37;;;2.40;;
5060;SDS011;2549;52.128;21.068;2022-08-04T11:50:46;2.27;;;2.17;;
5060;SDS011;2549;52.128;21.068;2022-08-04T11:53:22;3.70;;;2.53;;
5060;SDS011;2549;52.128;21.068;2022-08-04T11:55:51;3.13;;;2.13;;
5060;SDS011;2549;52.128;21.068;2022-08-04T11:58:34;3.30;;;2.20;;
5060;SDS011;2549;52.128;21.068;2022-08-04T12:01:05;9.70;;;2.40;;
5060;SDS011;2549;52.128;21.068;2022-08-04T12:06:56;2.33;;;2.20;;
5060;SDS011;2549;52.128;21.068;2022-08-04T12:10:17;5.37;;;1.90;;
5060;SDS011;2549;52.128;21.068;2022-08-04T12:13:09;3.87;;;2.40;;
5060;SDS011;2549;52.128;21.068;2022-08-04T12:18:35;7.20;;;5.20;;
5060;SDS011;2549;52.128;21.068;2022-08-04T12:21:17;2.20;;;2.10;;
5060;SDS011;2549;52.128;21.068;2022-08-04T12:24:07;2.00;;;1.90;;
5060;SDS011;2549;52.128;21.068;2022-08-04T12:26:47;2.30;;;2.20;;
5060;SDS011;2549;52.128;21.068;2022-08-04T12:29:21;2.00;;;1.90;;
5060;SDS011;2549;52.128;21.068;2022-08-04T12:31:54;2.17;;;2.07;;
5060;SDS011;2549;52.128;21.068;2022-08-04T12:34:29;2.20;;;2.00;;
5060;SDS011;2549;52.128;21.068;2022-08-04T12:39:49;6.00;;;2.13;;
5060;SDS011;2549;52.128;21.068;2022-08-04T12:45:48;4.50;;;2.80;;
5060;SDS011;2549;52.128;21.068;2022-08-04T12:48:17;3.47;;;3.23;;
5060;SDS011;2549;52.128;21.068;2022-08-04T12:50:50;2.90;;;2.70;;
5060;SDS011;2549;52.128;21.068;2022-08-04T12:53:19;1.97;;;1.80;;
5060;SDS011;2549;52.128;21.068;2022-08-04T12:55:57;2.23;;;2.13;;
5060;SDS011;2549;52.128;21.068;2022-08-04T12:58:28;2.40;;;2.20;;
5060;SDS011;2549;52.128;21.068;2022-08-04T13:01:27;7.80;;;2.27;;
5060;SDS011;2549;52.128;21.068;2022-08-04T13:04:15;2.30;;;2.20;;
5060;SDS011;2549;52.128;21.068;2022-08-04T13:06:51;2.27;;;2.10;;
5060;SDS011;2549;52.128;21.068;2022-08-04T13:09:25;1.70;;;1.60;;
5060;SDS011;2549;52.128;21.068;2022-08-04T13:11:58;3.37;;;2.00;;
5060;SDS011;2549;52.128;21.068;2022-08-04T13:14:32;2.30;;;1.77;;
5060;SDS011;2549;52.128;21.068;2022-08-04T13:17:03;2.93;;;2.40;;
5060;SDS011;2549;52.128;21.068;2022-08-04T13:19:33;4.47;;;1.80;;
5060;SDS011;2549;52.128;21.068;2022-08-04T13:22:07;5.37;;;2.30;;
5060;SDS011;2549;52.128;21.068;2022-08-04T13:24:34;2.80;;;2.47;;
5060;SDS011;2549;52.128;21.068;2022-08-04T13:27:23;2.80;;;1.90;;
5060;SDS011;2549;52.128;21.068;2022-08-04T13:29:53;2.23;;;1.63;;
5060;SDS011;2549;52.128;21.068;2022-08-04T13:32:26;3.33;;;1.70;;
5060;SDS011;2549;52.128;21.068;2022-08-04T13:34:55;6.67;;;2.00;;
5060;SDS011;2549;52.128;21.068;2022-08-04T13:37:25;4.83;;;2.00;;
5060;SDS011;2549;52.128;21.068;2022-08-04T13:40:01;1.30;;;1.30;;
5060;SDS011;2549;52.128;21.068;2022-08-04T13:42:39;2.57;;;2.00;;
5060;SDS011;2549;52.128;21.068;2022-08-04T13:45:11;4.10;;;2.30;;
5060;SDS011;2549;52.128;21.068;2022-08-04T13:47:39;1.90;;;1.80;;
5060;SDS011;2549;52.128;21.068;2022-08-04T13:52:52;1.97;;;1.87;;
5060;SDS011;2549;52.128;21.068;2022-08-04T13:58:04;1.97;;;1.87;;
5060;SDS011;2549;52.128;21.068;2022-08-04T14:00:46;1.90;;;1.80;;
5060;SDS011;2549;52.128;21.068;2022-08-04T14:03:25;1.83;;;1.77;;
5060;SDS011;2549;52.128;21.068;2022-08-04T14:06:22;2.87;;;1.73;;
5060;SDS011;2549;52.128;21.068;2022-08-04T14:11:34;1.73;;;1.53;;
5060;SDS011;2549;52.128;21.068;2022-08-04T14:24:55;4.30;;;2.13;;
5060;SDS011;2549;52.128;21.068;2022-08-04T14:27:27;1.90;;;1.80;;
5060;SDS011;2549;52.128;21.068;2022-08-04T14:29:55;2.70;;;1.60;;
5060;SDS011;2549;52.128;21.068;2022-08-04T14:32:22;1.60;;;1.50;;
5060;SDS011;2549;52.128;21.068;2022-08-04T14:34:51;1.73;;;1.63;;
5060;SDS011;2549;52.128;21.068;2022-08-04T14:37:19;1.80;;;1.70;;
5060;SDS011;2549;52.128;21.068;2022-08-04T14:39:49;1.50;;;1.40;;
5060;SDS011;2549;52.128;21.068;2022-08-04T14:42:38;1.60;;;1.50;;
5060;SDS011;2549;52.128;21.068;2022-08-04T14:45:06;2.20;;;1.50;;
5060;SDS011;2549;52.128;21.068;2022-08-04T14:47:38;1.33;;;1.27;;
5060;SDS011;2549;52.128;21.068;2022-08-04T14:50:06;2.13;;;2.00;;
5060;SDS011;2549;52.128;21.068;2022-08-04T14:52:35;2.10;;;1.60;;
5060;SDS011;2549;52.128;21.068;2022-08-04T14:55:22;1.43;;;1.33;;
5060;SDS011;2549;52.128;21.068;2022-08-04T14:57:50;3.10;;;1.67;;
5060;SDS011;2549;52.128;21.068;2022-08-04T15:00:37;3.10;;;1.70;;
5060;SDS011;2549;52.128;21.068;2022-08-04T15:03:05;1.80;;;1.70;;
5060;SDS011;2549;52.128;21.068;2022-08-04T15:05:38;1.90;;;1.80;;
5060;SDS011;2549;52.128;21.068;2022-08-04T15:08:26;1.90;;;1.80;;
5060;SDS011;2549;52.128;21.068;2022-08-04T15:10:57;1.90;;;1.70;;
5060;SDS011;2549;52.128;21.068;2022-08-04T15:13:31;1.87;;;1.77;;
5060;SDS011;2549;52.128;21.068;2022-08-04T15:15:58;1.83;;;1.73;;
5060;SDS011;2549;52.128;21.068;2022-08-04T15:18:33;1.50;;;1.50;;
5060;SDS011;2549;52.128;21.068;2022-08-04T15:21:02;1.60;;;1.50;;
5060;SDS011;2549;52.128;21.068;2022-08-04T15:23:29;6.87;;;2.40;;
5060;SDS011;2549;52.128;21.068;2022-08-04T15:26:05;2.50;;;1.80;;
5060;SDS011;2549;52.128;21.068;2022-08-04T15:28:35;4.53;;;1.50;;
5060;SDS011;2549;52.128;21.068;2022-08-04T15:31:06;5.47;;;1.50;;
5060;SDS011;2549;52.128;21.068;2022-08-04T15:33:54;2.30;;;1.70;;
5060;SDS011;2549;52.128;21.068;2022-08-04T15:42:09;1.70;;;1.63;;
5060;SDS011;2549;52.128;21.068;2022-08-04T15:45:03;1.50;;;1.43;;
5060;SDS011;2549;52.128;21.068;2022-08-04T15:47:36;1.80;;;1.47;;
5060;SDS011;2549;52.128;21.068;2022-08-04T15:58:05;6.40;;;1.60;;
5060;SDS011;2549;52.128;21.068;2022-08-04T16:16:28;3.60;;;1.97;;
5060;SDS011;2549;52.128;21.068;2022-08-04T16:19:51;1.90;;;1.80;;
5060;SDS011;2549;52.128;21.068;2022-08-04T16:22:30;12.57;;;2.20;;
5060;SDS011;2549;52.128;21.068;2022-08-04T16:24:59;2.73;;;1.80;;
5060;SDS011;2549;52.128;21.068;2022-08-04T16:27:36;3.67;;;2.00;;
5060;SDS011;2549;52.128;21.068;2022-08-04T16:30:06;8.07;;;1.60;;
5060;SDS011;2549;52.128;21.068;2022-08-04T16:32:43;4.53;;;1.77;;
5060;SDS011;2549;52.128;21.068;2022-08-04T16:37:44;2.87;;;1.87;;
5060;SDS011;2549;52.128;21.068;2022-08-04T16:40:31;2.83;;;1.73;;
5060;SDS011;2549;52.128;21.068;2022-08-04T16:43:04;1.90;;;1.40;;
5060;SDS011;2549;52.128;21.068;2022-08-04T16:48:28;1.50;;;1.50;;
5060;SDS011;2549;52.128;21.068;2022-08-04T16:53:35;11.83;;;1.90;;
5060;SDS011;2549;52.128;21.068;2022-08-04T16:56:29;4.53;;;2.10;;
5060;SDS011;2549;52.128;21.068;2022-08-04T16:59:04;2.80;;;1.87;;
5060;SDS011;2549;52.128;21.068;2022-08-04T17:01:37;2.13;;;2.00;;
5060;SDS011;2549;52.128;21.068;2022-08-04T17:04:14;3.70;;;2.60;;
5060;SDS011;2549;52.128;21.068;2022-08-04T17:06:42;7.23;;;2.40;;
5060;SDS011;2549;52.128;21.068;2022-08-04T17:09:15;2.40;;;1.97;;
5060;SDS011;2549;52.128;21.068;2022-08-04T17:11:44;3.27;;;1.40;;
5060;SDS011;2549;52.128;21.068;2022-08-04T17:14:12;2.60;;;1.67;;
5060;SDS011;2549;52.128;21.068;2022-08-04T17:16:40;2.83;;;1.83;;
5060;SDS011;2549;52.128;21.068;2022-08-04T17:19:08;1.63;;;1.53;;
5060;SDS011;2549;52.128;21.068;2022-08-04T17:21:51;5.27;;;2.23;;
5060;SDS011;2549;52.128;21.068;2022-08-04T17:24:34;2.90;;;2.20;;
5060;SDS011;2549;52.128;21.068;2022-08-04T17:27:04;7.30;;;2.33;;
5060;SDS011;2549;52.128;21.068;2022-08-04T17:29:51;6.20;;;2.03;;
5060;SDS011;2549;52.128;21.068;2022-08-04T17:32:18;2.43;;;2.20;;
5060;SDS011;2549;52.128;21.068;2022-08-04T17:34:48;1.67;;;1.60;;
5060;SDS011;2549;52.128;21.068;2022-08-04T17:37:16;8.17;;;2.37;;
5060;SDS011;2549;52.128;21.068;2022-08-04T17:40:04;2.60;;;1.93;;
5060;SDS011;2549;52.128;21.068;2022-08-04T17:42:48;2.00;;;1.90;;
5060;SDS011;2549;52.128;21.068;2022-08-04T17:45:16;2.30;;;2.07;;
5060;SDS011;2549;52.128;21.068;2022-08-04T17:48:06;2.30;;;1.70;;
5060;SDS011;2549;52.128;21.068;2022-08-04T17:50:34;6.10;;;2.40;;
5060;SDS011;2549;52.128;21.068;2022-08-04T17:53:08;2.20;;;1.73;;
5060;SDS011;2549;52.128;21.068;2022-08-04T17:58:17;3.60;;;2.10;;
5060;SDS011;2549;52.128;21.068;2022-08-04T18:00:59;1.93;;;1.83;;
5060;SDS011;2549;52.128;21.068;2022-08-04T18:03:47;2.23;;;1.87;;
5060;SDS011;2549;52.128;21.068;2022-08-04T18:06:18;1.97;;;1.87;;
5060;SDS011;2549;52.128;21.068;2022-08-04T18:08:51;2.97;;;2.37;;
5060;SDS011;2549;52.128;21.068;2022-08-04T18:11:24;1.80;;;1.70;;
5060;SDS011;2549;52.128;21.068;2022-08-04T18:14:06;2.73;;;2.20;;
5060;SDS011;2549;52.128;21.068;2022-08-04T18:16:41;2.10;;;2.00;;
5060;SDS011;2549;52.128;21.068;2022-08-04T18:19:11;2.07;;;1.97;;
5060;SDS011;2549;52.128;21.068;2022-08-04T18:21:40;4.20;;;2.50;;
5060;SDS011;2549;52.128;21.068;2022-08-04T18:24:25;6.23;;;2.00;;
5060;SDS011;2549;52.128;21.068;2022-08-04T18:27:13;4.20;;;2.17;;
5060;SDS011;2549;52.128;21.068;2022-08-04T18:29:42;14.77;;;2.47;;
5060;SDS011;2549;52.128;21.068;2022-08-04T18:32:29;6.53;;;2.00;;
5060;SDS011;2549;52.128;21.068;2022-08-04T18:34:59;4.60;;;2.80;;
5060;SDS011;2549;52.128;21.068;2022-08-04T18:37:31;7.47;;;2.87;;
5060;SDS011;2549;52.128;21.068;2022-08-04T18:40:18;5.03;;;2.40;;
5060;SDS011;2549;52.128;21.068;2022-08-04T18:43:00;4.30;;;2.50;;
5060;SDS011;2549;52.128;21.068;2022-08-04T18:45:29;6.20;;;1.93;;
5060;SDS011;2549;52.128;21.068;2022-08-04T18:48:01;2.10;;;2.00;;
5060;SDS011;2549;52.128;21.068;2022-08-04T18:50:39;2.03;;;1.93;;
5060;SDS011;2549;52.128;21.068;2022-08-04T18:53:26;7.20;;;2.33;;
5060;SDS011;2549;52.128;21.068;2022-08-04T18:56:01;2.30;;;2.20;;
5060;SDS011;2549;52.128;21.068;2022-08-04T18:58:31;4.77;;;2.07;;
5060;SDS011;2549;52.128;21.068;2022-08-04T19:00:58;2.67;;;2.47;;
5060;SDS011;2549;52.128;21.068;2022-08-04T19:03:27;3.70;;;2.70;;
5060;SDS011;2549;52.128;21.068;2022-08-04T19:05:58;7.60;;;2.30;;
5060;SDS011;2549;52.128;21.068;2022-08-04T19:08:26;3.80;;;2.27;;
5060;SDS011;2549;52.128;21.068;2022-08-04T19:11:00;1.93;;;1.83;;
5060;SDS011;2549;52.128;21.068;2022-08-04T19:13:48;4.00;;;2.07;;
5060;SDS011;2549;52.128;21.068;2022-08-04T19:16:24;4.60;;;2.33;;
5060;SDS011;2549;52.128;21.068;2022-08-04T19:18:53;4.63;;;2.70;;
5060;SDS011;2549;52.128;21.068;2022-08-04T19:21:21;4.83;;;2.03;;
5060;SDS011;2549;52.128;21.068;2022-08-04T19:24:09;4.60;;;2.30;;
5060;SDS011;2549;52.128;21.068;2022-08-04T19:26:57;2.33;;;2.23;;
5060;SDS011;2549;52.128;21.068;2022-08-04T19:29:24;4.80;;;2.50;;
5060;SDS011;2549;52.128;21.068;2022-08-04T19:32:06;2.23;;;2.13;;
5060;SDS011;2549;52.128;21.068;2022-08-04T19:34:41;8.23;;;2.90;;
5060;SDS011;2549;52.128;21.068;2022-08-04T19:37:12;7.07;;;2.83;;
5060;SDS011;2549;52.128;21.068;2022-08-04T19:40:04;2.77;;;2.57;;
5060;SDS011;2549;52.128;21.068;2022-08-04T19:42:34;2.90;;;2.70;;
5060;SDS011;2549;52.128;21.068;2022-08-04T19:45:01;5.53;;;3.00;;
5060;SDS011;2549;52.128;21.068;2022-08-04T19:47:29;13.03;;;2.67;;
5060;SDS011;2549;52.128;21.068;2022-08-04T19:50:16;3.20;;;2.60;;
5060;SDS011;2549;52.128;21.068;2022-08-04T19:52:43;3.00;;;2.70;;
5060;SDS011;2549;52.128;21.068;2022-08-04T19:55:17;10.60;;;2.67;;
5060;SDS011;2549;52.128;21.068;2022-08-04T19:57:48;4.40;;;2.30;;
5060;SDS011;2549;52.128;21.068;2022-08-04T20:00:18;5.17;;;2.97;;
5060;SDS011;2549;52.128;21.068;2022-08-04T20:03:00;2.67;;;2.23;;
5060;SDS011;2549;52.128;21.068;2022-08-04T20:05:28;4.27;;;2.43;;
5060;SDS011;2549;52.128;21.068;2022-08-04T20:08:17;4.70;;;2.70;;
5060;SDS011;2549;52.128;21.068;2022-08-04T20:10:44;5.53;;;3.13;;
5060;SDS011;2549;52.128;21.068;2022-08-04T20:13:17;9.60;;;2.97;;
5060;SDS011;2549;52.128;21.068;2022-08-04T20:15:44;7.37;;;2.70;;
5060;SDS011;2549;52.128;21.068;2022-08-04T20:18:22;6.53;;;2.50;;
5060;SDS011;2549;52.128;21.068;2022-08-04T20:21:09;5.47;;;2.97;;
5060;SDS011;2549;52.128;21.068;2022-08-04T20:23:49;8.10;;;3.00;;
5060;SDS011;2549;52.128;21.068;2022-08-04T20:26:17;8.00;;;3.10;;
5060;SDS011;2549;52.128;21.068;2022-08-04T20:28:45;4.60;;;3.30;;
5060;SDS011;2549;52.128;21.068;2022-08-04T20:31:17;2.40;;;2.20;;
5060;SDS011;2549;52.128;21.068;2022-08-04T20:33:45;6.93;;;2.87;;
5060;SDS011;2549;52.128;21.068;2022-08-04T20:36:19;6.13;;;2.63;;
5060;SDS011;2549;52.128;21.068;2022-08-04T20:38:46;4.33;;;3.17;;
5060;SDS011;2549;52.128;21.068;2022-08-04T20:41:18;3.67;;;3.37;;
5060;SDS011;2549;52.128;21.068;2022-08-04T20:43:45;6.97;;;3.27;;
5060;SDS011;2549;52.128;21.068;2022-08-04T20:46:15;9.83;;;3.47;;
5060;SDS011;2549;52.128;21.068;2022-08-04T20:48:55;6.00;;;3.30;;
5060;SDS011;2549;52.128;21.068;2022-08-04T20:51:22;5.63;;;2.40;;
5060;SDS011;2549;52.128;21.068;2022-08-04T20:53:58;6.30;;;3.53;;
5060;SDS011;2549;52.128;21.068;2022-08-04T20:56:26;7.40;;;2.67;;
5060;SDS011;2549;52.128;21.068;2022-08-04T20:58:57;3.63;;;3.03;;
5060;SDS011;2549;52.128;21.068;2022-08-04T21:01:25;4.20;;;2.90;;
5060;SDS011;2549;52.128;21.068;2022-08-04T21:03:56;3.37;;;3.17;;